createdAt,value
2023-03-05T00:00:48.207Z,2.76
2023-03-05T00:03:14.811Z,2.53
2023-03-05T00:05:41.375Z,3.15
2023-03-05T00:08:08.060Z,2.63
2023-03-05T00:10:37.002Z,2.90
2023-03-05T00:13:03.544Z,2.39
2023-03-05T00:15:30.353Z,2.59
2023-03-05T00:18:00.253Z,2.63
2023-03-05T00:20:27.144Z,2.78
2023-03-05T00:23:02.690Z,2.39
2023-03-05T00:25:29.777Z,2.75
2023-03-05T00:27:56.270Z,2.35
2023-03-05T00:30:22.731Z,2.67
2023-03-05T00:32:49.297Z,2.59
2023-03-05T00:35:15.769Z,2.66
2023-03-05T00:37:42.251Z,2.58
2023-03-05T00:40:18.298Z,2.60
2023-03-05T00:42:58.052Z,2.20
2023-03-05T00:45:25.194Z,2.30
2023-03-05T00:47:51.701Z,2.54
2023-03-05T00:50:18.261Z,2.64
2023-03-05T00:52:44.810Z,2.74
2023-03-05T00:55:11.526Z,2.67
2023-03-05T00:57:38.528Z,2.86
2023-03-05T01:00:11.362Z,2.32
2023-03-05T01:02:38.164Z,2.45
2023-03-05T01:05:05.031Z,2.59
2023-03-05T01:07:31.683Z,2.59
2023-03-05T01:09:58.329Z,2.88
2023-03-05T01:12:26.027Z,2.46
2023-03-05T01:14:52.601Z,2.09
2023-03-05T01:17:19.094Z,2.39
2023-03-05T01:19:45.569Z,2.61
2023-03-05T01:22:12.059Z,2.40
2023-03-05T01:24:38.512Z,2.29
2023-03-05T01:27:05.152Z,2.49
2023-03-05T01:29:31.592Z,2.32
2023-03-05T01:31:58.111Z,2.31
2023-03-05T01:34:24.529Z,2.39
2023-03-05T01:36:51.454Z,2.41
2023-03-05T01:39:18.014Z,2.19
2023-03-05T01:41:44.616Z,2.06
2023-03-05T01:44:30.263Z,2.15
2023-03-05T01:46:59.342Z,1.97
2023-03-05T01:49:32.858Z,1.65
2023-03-05T01:52:20.226Z,2.02
2023-03-05T01:54:54.218Z,2.13
2023-03-05T01:57:34.436Z,2.03
2023-03-05T02:00:43.447Z,2.20
2023-03-05T02:03:16.481Z,1.67
2023-03-05T02:05:58.345Z,1.74
2023-03-05T02:13:03.300Z,1.97
2023-03-05T02:15:31.625Z,1.74
2023-03-05T02:17:58.337Z,1.63
2023-03-05T02:20:30.557Z,1.65
2023-03-05T02:23:16.976Z,1.54
2023-03-05T02:26:06.568Z,1.68
2023-03-05T02:28:55.598Z,1.53
2023-03-05T02:31:40.106Z,1.64
2023-03-05T02:34:10.420Z,2.09
2023-03-05T02:36:37.057Z,1.82
2023-03-05T02:39:03.927Z,2.12
2023-03-05T02:41:30.570Z,2.06
2023-03-05T02:43:58.229Z,2.09
2023-03-05T02:46:28.045Z,1.56
2023-03-05T02:48:54.665Z,1.58
2023-03-05T02:51:26.161Z,1.82
2023-03-05T02:54:07.156Z,1.67
2023-03-05T02:56:34.381Z,1.47
2023-03-05T02:59:00.855Z,1.80
2023-03-05T03:01:31.596Z,1.61
2023-03-05T03:04:00.330Z,1.60
2023-03-05T03:06:27.129Z,1.76
2023-03-05T03:08:53.622Z,1.78
2023-03-05T03:11:21.602Z,2.02
2023-03-05T03:13:48.127Z,2.00
2023-03-05T03:16:16.075Z,2.26
2023-03-05T03:18:44.076Z,1.88
2023-03-05T03:24:10.943Z,1.62
2023-03-05T03:26:44.700Z,1.81
2023-03-05T03:29:11.457Z,1.70
2023-03-05T03:31:44.143Z,1.89
2023-03-05T03:34:24.917Z,1.44
2023-03-05T03:40:50.784Z,1.71
2023-03-05T03:43:17.274Z,2.08
2023-03-05T03:45:46.420Z,1.84
2023-03-05T03:48:53.310Z,1.98
2023-03-05T03:56:02.507Z,1.99
2023-03-05T03:58:29.885Z,1.89
2023-03-05T04:00:58.092Z,1.57
2023-03-05T04:03:24.724Z,1.59
2023-03-05T04:05:51.561Z,1.80
2023-03-05T04:08:35.777Z,1.19
2023-03-05T04:11:10.249Z,1.40
2023-03-05T04:13:36.868Z,1.16
2023-03-05T04:16:12.643Z,1.96
2023-03-05T04:18:39.441Z,1.49
2023-03-05T04:21:06.007Z,1.29
2023-03-05T04:23:32.763Z,1.66
2023-03-05T04:25:59.591Z,1.31
2023-03-05T04:31:27.793Z,1.60
2023-03-05T04:38:38.418Z,1.50
2023-03-05T04:41:05.217Z,1.11
2023-03-05T04:43:37.809Z,1.30
2023-03-05T04:46:05.078Z,1.05
2023-03-05T04:48:34.429Z,0.86
2023-03-05T04:51:17.963Z,1.53
2023-03-05T04:54:26.259Z,1.10
2023-03-05T04:56:57.576Z,0.99
2023-03-05T04:59:28.847Z,1.03
2023-03-05T05:02:01.464Z,1.02
2023-03-05T05:04:53.272Z,0.91
2023-03-05T05:07:22.563Z,0.78
2023-03-05T05:09:55.175Z,1.11
2023-03-05T05:15:37.887Z,1.16
2023-03-05T05:18:08.495Z,1.00
2023-03-05T05:24:43.889Z,1.02
2023-03-05T05:27:13.699Z,1.26
2023-03-05T05:30:10.735Z,0.70
2023-03-05T05:32:57.905Z,0.85
2023-03-05T05:40:08.530Z,1.19
2023-03-05T05:42:35.878Z,1.26
2023-03-05T05:45:12.715Z,0.84
2023-03-05T05:47:39.555Z,1.00
2023-03-05T05:50:17.363Z,0.81
2023-03-05T05:52:51.264Z,0.84
2023-03-05T05:55:18.398Z,0.98
2023-03-05T05:57:45.032Z,1.03
2023-03-05T06:00:12.921Z,1.24
2023-03-05T06:02:46.455Z,0.95
2023-03-05T06:05:24.148Z,0.83
2023-03-05T06:11:21.362Z,1.02
2023-03-05T06:20:39.674Z,1.23
2023-03-05T06:23:08.915Z,1.37
2023-03-05T06:30:13.942Z,1.42
2023-03-05T06:32:40.795Z,1.07
2023-03-05T06:35:08.028Z,1.28
2023-03-05T06:37:34.620Z,1.43
2023-03-05T06:40:01.224Z,1.93
2023-03-05T06:45:47.165Z,1.27
2023-03-05T06:48:15.653Z,1.43
2023-03-05T06:50:53.128Z,1.50
2023-03-05T07:01:15.033Z,1.70
2023-03-05T07:07:41.970Z,1.95
2023-03-05T07:10:15.971Z,1.57
2023-03-05T07:21:03.580Z,1.73
2023-03-05T07:49:22.383Z,1.93
2023-03-05T07:51:51.623Z,2.35
2023-03-05T07:54:18.235Z,2.65
2023-03-05T07:56:44.907Z,2.63
2023-03-05T08:02:33.528Z,2.54
2023-03-05T08:08:16.714Z,2.02
2023-03-05T08:10:53.196Z,2.29
2023-03-05T08:25:33.737Z,2.07
2023-03-05T08:28:09.393Z,2.45
2023-03-05T08:38:26.933Z,2.59
2023-03-05T08:54:11.920Z,3.00
2023-03-05T08:56:38.463Z,2.67
2023-03-05T08:59:05.787Z,2.62
2023-03-05T09:05:14.734Z,3.06
2023-03-05T09:07:41.829Z,2.96
2023-03-05T09:22:33.896Z,3.45
2023-03-05T09:32:12.795Z,3.20
2023-03-05T09:34:42.586Z,3.36
2023-03-05T09:37:10.940Z,3.15
2023-03-05T09:39:40.516Z,3.02
2023-03-05T09:42:13.145Z,3.35
2023-03-05T09:44:58.337Z,3.17
2023-03-05T09:47:30.905Z,3.03
2023-03-05T09:50:06.376Z,3.38
2023-03-05T09:53:12.307Z,3.41
2023-03-05T09:59:25.154Z,3.60
2023-03-05T10:01:53.674Z,3.25
2023-03-05T10:04:40.428Z,3.34
2023-03-05T10:07:14.780Z,3.24
2023-03-05T10:17:46.296Z,3.06
2023-03-05T10:20:41.792Z,3.30
2023-03-05T10:23:08.164Z,2.86
2023-03-05T10:26:08.788Z,2.98
2023-03-05T10:32:50.988Z,3.14
2023-03-05T10:35:41.097Z,3.12
2023-03-05T10:38:32.258Z,3.15
2023-03-05T10:44:47.738Z,3.14
2023-03-05T10:47:30.788Z,3.22
2023-03-05T10:49:59.412Z,3.41
2023-03-05T10:52:48.195Z,3.34
2023-03-05T11:02:09.238Z,3.90
2023-03-05T11:04:41.392Z,3.71
2023-03-05T11:07:32.671Z,4.00
2023-03-05T11:10:16.851Z,4.14
2023-03-05T11:12:47.811Z,3.77
2023-03-05T11:15:14.630Z,3.76
2023-03-05T11:17:44.884Z,3.64
2023-03-05T11:20:30.058Z,3.23
2023-03-05T11:23:06.027Z,3.02
2023-03-05T11:26:05.766Z,2.72
2023-03-05T11:28:51.987Z,3.07
2023-03-05T11:31:31.202Z,2.82
2023-03-05T11:34:53.063Z,2.91
2023-03-05T11:37:46.203Z,2.64
2023-03-05T11:40:30.293Z,2.96
2023-03-05T11:43:00.717Z,2.70
2023-03-05T11:45:37.363Z,3.06
2023-03-05T11:48:37.017Z,3.84
2023-03-05T11:51:19.644Z,3.96
2023-03-05T11:53:55.775Z,3.91
2023-03-05T11:56:34.566Z,3.86
2023-03-05T11:59:29.826Z,4.38
2023-03-05T12:01:57.839Z,4.20
2023-03-05T12:04:24.672Z,4.63
2023-03-05T12:06:55.114Z,4.54
2023-03-05T12:09:27.829Z,4.17
2023-03-05T12:12:05.135Z,4.16
2023-03-05T12:15:01.116Z,4.62
2023-03-05T12:18:17.805Z,4.46
2023-03-05T12:20:55.711Z,3.83
2023-03-05T12:23:23.234Z,3.66
2023-03-05T12:25:57.183Z,3.53
2023-03-05T12:28:36.769Z,3.39
2023-03-05T12:31:25.756Z,3.55
2023-03-05T12:33:52.416Z,3.83
2023-03-05T12:36:21.837Z,4.07
2023-03-05T12:38:52.488Z,3.96
2023-03-05T12:41:30.543Z,3.55
2023-03-05T12:44:07.282Z,3.79
2023-03-05T12:46:39.097Z,4.05
2023-03-05T12:49:20.754Z,4.03
2023-03-05T12:51:50.143Z,4.00
2023-03-05T12:54:27.085Z,4.53
2023-03-05T12:56:56.045Z,4.32
2023-03-05T12:59:27.952Z,4.43
2023-03-05T13:02:03.078Z,4.39
2023-03-05T13:04:32.400Z,4.24
2023-03-05T13:07:07.613Z,3.91
2023-03-05T13:09:36.742Z,3.80
2023-03-05T13:12:11.676Z,4.21
2023-03-05T13:14:42.504Z,4.30
2023-03-05T13:17:47.275Z,4.39
2023-03-05T13:20:38.647Z,4.28
2023-03-05T13:23:08.029Z,4.41
2023-03-05T13:25:34.706Z,4.12
2023-03-05T13:28:04.914Z,4.24
2023-03-05T13:30:33.613Z,4.14
2023-03-05T13:33:04.016Z,3.97
2023-03-05T13:35:34.968Z,4.10
2023-03-05T13:38:40.885Z,3.83
2023-03-05T13:44:41.995Z,3.21
2023-03-05T13:47:15.812Z,3.46
2023-03-05T13:49:44.233Z,3.47
2023-03-05T13:52:11.800Z,3.36
2023-03-05T13:54:38.531Z,3.36
2023-03-05T13:57:06.862Z,3.95
2023-03-05T13:59:39.138Z,3.99
2023-03-05T14:02:20.736Z,4.18
2023-03-05T14:04:48.134Z,3.66
2023-03-05T14:07:20.882Z,4.00
2023-03-05T14:09:50.053Z,3.95
2023-03-05T14:12:30.368Z,4.14
2023-03-05T14:14:59.418Z,4.06
2023-03-05T14:17:44.898Z,3.93
2023-03-05T14:20:11.253Z,4.26
2023-03-05T14:22:40.310Z,4.10
2023-03-05T14:25:25.556Z,3.87
2023-03-05T14:27:52.198Z,3.72
2023-03-05T14:30:21.006Z,4.03
2023-03-05T14:32:48.678Z,3.07
2023-03-05T14:35:26.822Z,3.75
2023-03-05T14:37:56.835Z,3.79
2023-03-05T14:40:33.016Z,3.87
2023-03-05T14:43:06.465Z,3.62
2023-03-05T14:45:36.253Z,3.78
2023-03-05T14:48:08.147Z,3.48
2023-03-05T14:50:56.465Z,3.73
2023-03-05T14:53:28.010Z,3.33
2023-03-05T14:55:56.893Z,3.60
2023-03-05T14:58:27.537Z,3.48
2023-03-05T15:00:55.567Z,3.42
2023-03-05T15:03:22.772Z,3.65
2023-03-05T15:05:52.499Z,3.82
2023-03-05T15:08:32.269Z,3.53
2023-03-05T15:10:59.834Z,3.25
2023-03-05T15:13:26.724Z,3.57
2023-03-05T15:15:53.862Z,3.71
2023-03-05T15:18:22.433Z,3.43
2023-03-05T15:20:49.481Z,3.31
2023-03-05T15:23:16.183Z,2.98
2023-03-05T15:25:42.779Z,3.14
2023-03-05T15:28:09.314Z,2.99
2023-03-05T15:30:39.544Z,3.03
2023-03-05T15:33:09.640Z,3.40
2023-03-05T15:35:36.367Z,3.29
2023-03-05T15:38:03.225Z,3.57
2023-03-05T15:40:29.994Z,3.25
2023-03-05T15:42:57.742Z,3.12
2023-03-05T15:45:24.925Z,3.14
2023-03-05T15:47:52.730Z,3.34
2023-03-05T15:50:21.320Z,3.33
2023-03-05T15:52:48.367Z,2.99
2023-03-05T15:55:14.904Z,3.16
2023-03-05T15:57:47.570Z,3.33
2023-03-05T16:00:16.376Z,3.16
2023-03-05T16:02:44.562Z,3.47
2023-03-05T16:05:11.307Z,3.19
2023-03-05T16:07:39.163Z,3.27
2023-03-05T16:10:06.315Z,3.18
2023-03-05T16:12:43.090Z,2.90
2023-03-05T16:15:16.124Z,2.92
2023-03-05T16:17:45.466Z,2.55
2023-03-05T16:20:12.659Z,2.88
2023-03-05T16:22:39.246Z,2.95
2023-03-05T16:25:06.331Z,2.93
2023-03-05T16:27:32.820Z,2.85
2023-03-05T16:29:59.389Z,3.00
2023-03-05T16:32:25.950Z,3.19
2023-03-05T16:34:52.484Z,2.71
2023-03-05T16:37:21.321Z,3.07
2023-03-05T16:39:58.178Z,2.83
2023-03-05T16:42:24.614Z,2.95
2023-03-05T16:44:56.367Z,2.96
2023-03-05T16:47:25.931Z,2.91
2023-03-05T16:49:52.504Z,2.91
2023-03-05T16:52:19.928Z,2.76
2023-03-05T16:54:47.591Z,2.87
2023-03-05T16:57:17.427Z,2.99
2023-03-05T16:59:44.657Z,2.63
2023-03-05T17:02:13.224Z,2.76
2023-03-05T17:04:39.899Z,2.71
2023-03-05T17:07:06.931Z,2.88
2023-03-05T17:09:33.791Z,2.63
2023-03-05T17:12:00.522Z,2.90
2023-03-05T17:14:27.138Z,2.87
2023-03-05T17:16:58.605Z,2.95
2023-03-05T17:19:25.089Z,2.52
2023-03-05T17:21:52.334Z,2.55
2023-03-05T17:24:22.261Z,2.51
2023-03-05T17:26:49.768Z,2.62
2023-03-05T17:29:16.527Z,2.39
2023-03-05T17:31:43.343Z,2.65
2023-03-05T17:34:10.180Z,2.43
2023-03-05T17:36:42.809Z,2.30
2023-03-05T17:39:09.282Z,2.62
2023-03-05T17:41:35.844Z,2.48
2023-03-05T17:44:02.286Z,2.81
2023-03-05T17:46:28.914Z,2.41
2023-03-05T17:48:55.338Z,2.66
2023-03-05T17:51:21.836Z,2.45
2023-03-05T17:53:48.261Z,2.42
2023-03-05T17:56:22.070Z,2.50
2023-03-05T17:58:49.639Z,2.72
2023-03-05T18:01:29.368Z,2.24
2023-03-05T18:03:56.983Z,2.44
2023-03-05T18:06:23.666Z,2.44
2023-03-05T18:12:23.665Z,1.93
2023-03-05T18:14:50.273Z,2.13
2023-03-05T18:17:19.533Z,2.09
2023-03-05T18:19:46.219Z,2.21
2023-03-05T18:22:14.806Z,2.32
2023-03-05T18:24:41.246Z,2.18
2023-03-05T18:27:20.818Z,2.32
2023-03-05T18:29:47.346Z,1.92
2023-03-05T18:32:16.113Z,2.24
2023-03-05T18:34:42.584Z,2.02
2023-03-05T18:37:09.091Z,1.87
2023-03-05T18:39:36.727Z,1.85
2023-03-05T18:42:03.471Z,1.77
2023-03-05T18:44:30.051Z,2.03
2023-03-05T18:46:58.668Z,2.18
2023-03-05T18:49:29.829Z,1.72
2023-03-05T18:51:59.646Z,1.84
2023-03-05T18:54:26.307Z,1.90
2023-03-05T18:56:52.761Z,2.10
2023-03-05T18:59:19.224Z,2.02
2023-03-05T19:01:45.759Z,1.67
2023-03-05T19:04:12.330Z,1.90
2023-03-05T19:06:38.812Z,2.11
2023-03-05T19:09:12.129Z,1.78
2023-03-05T19:11:38.606Z,1.84
2023-03-05T19:14:05.121Z,2.10
2023-03-05T19:16:38.358Z,1.97
2023-03-05T19:19:20.552Z,2.04
2023-03-05T19:22:04.903Z,1.98
2023-03-05T19:24:31.663Z,1.83
2023-03-05T19:27:01.068Z,1.91
2023-03-05T19:29:33.149Z,1.92
2023-03-05T19:31:59.749Z,2.06
2023-03-05T19:34:28.614Z,1.91
2023-03-05T19:36:55.100Z,2.09
2023-03-05T19:39:22.729Z,1.94
2023-03-05T19:41:49.306Z,1.96
2023-03-05T19:44:16.241Z,1.86
2023-03-05T19:46:43.609Z,1.95
2023-03-05T19:49:10.727Z,2.04
2023-03-05T19:51:37.255Z,1.76
2023-03-05T19:54:06.290Z,2.06
2023-03-05T19:56:32.886Z,1.97
2023-03-05T19:58:59.237Z,2.10
2023-03-05T20:01:41.554Z,1.64
2023-03-05T20:04:11.745Z,2.04
2023-03-05T20:06:38.392Z,1.79
2023-03-05T20:09:07.536Z,2.09
2023-03-05T20:11:36.002Z,1.86
2023-03-05T20:14:02.573Z,1.64
2023-03-05T20:16:32.884Z,1.93
2023-03-05T20:18:59.822Z,1.98
2023-03-05T20:21:36.242Z,1.77
2023-03-05T20:24:08.517Z,2.14
2023-03-05T20:26:38.422Z,1.87
2023-03-05T21:13:25.585Z,2.07
2023-03-05T21:15:52.641Z,1.86
2023-03-05T21:18:28.254Z,1.91
2023-03-05T21:20:54.903Z,1.99
2023-03-05T21:23:21.326Z,2.15
2023-03-05T21:25:47.999Z,1.63
2023-03-05T21:28:18.713Z,1.98
2023-03-05T21:30:52.004Z,1.61
2023-03-05T21:33:22.302Z,1.62
2023-03-05T21:35:52.624Z,2.02
2023-03-05T21:38:39.440Z,1.76
2023-03-05T21:41:06.373Z,1.91
2023-03-05T21:43:42.761Z,1.99
2023-03-05T21:46:11.055Z,1.82
2023-03-05T21:48:38.272Z,1.79
2023-03-05T21:51:08.870Z,1.81
2023-03-05T21:53:35.766Z,1.94
2023-03-05T21:56:21.027Z,1.72
2023-03-05T21:58:47.588Z,1.74
2023-03-05T22:01:19.449Z,1.78
2023-03-05T22:03:46.144Z,2.05
2023-03-05T22:06:13.205Z,2.09
2023-03-05T22:08:39.695Z,1.95
2023-03-05T22:11:10.805Z,1.95
2023-03-05T22:13:38.113Z,1.62
2023-03-05T22:16:05.528Z,1.86
2023-03-05T22:18:33.377Z,1.77
2023-03-05T22:21:00.154Z,1.88
2023-03-05T22:23:46.336Z,2.02
2023-03-05T22:26:12.829Z,1.92
2023-03-05T22:28:39.462Z,1.74
2023-03-05T22:31:06.212Z,2.05
2023-03-05T22:33:32.734Z,1.76
2023-03-05T22:35:59.332Z,1.66
2023-03-05T22:38:25.908Z,1.92
2023-03-05T22:40:53.063Z,1.85
2023-03-05T22:43:20.191Z,1.78
2023-03-05T22:45:46.743Z,1.70
2023-03-05T22:48:13.272Z,1.93
2023-03-05T22:50:41.071Z,1.51
2023-03-05T22:53:08.156Z,1.77
2023-03-05T22:55:34.782Z,1.92
2023-03-05T22:58:01.241Z,1.90
2023-03-05T23:00:27.781Z,1.62
2023-03-05T23:02:54.596Z,1.82
2023-03-05T23:05:21.557Z,1.64
2023-03-05T23:07:48.148Z,1.76
2023-03-05T23:10:19.622Z,1.99
2023-03-05T23:12:53.400Z,1.54
2023-03-05T23:15:30.103Z,1.69
2023-03-05T23:17:57.204Z,1.61
2023-03-05T23:20:27.239Z,1.53
2023-03-05T23:22:56.050Z,1.53
2023-03-05T23:25:29.524Z,1.79
2023-03-05T23:27:58.119Z,1.81
2023-03-05T23:30:25.972Z,1.93
2023-03-05T23:32:58.210Z,1.68
2023-03-05T23:35:33.916Z,1.77
2023-03-05T23:38:05.026Z,1.62
2023-03-05T23:40:37.252Z,1.50
2023-03-05T23:43:04.676Z,1.66
2023-03-05T23:45:32.470Z,1.84
2023-03-05T23:47:59.378Z,1.94
2023-03-05T23:50:34.963Z,1.79
2023-03-05T23:53:02.462Z,1.83
2023-03-05T23:55:35.429Z,1.77
2023-03-05T23:58:09.276Z,1.59
